Time;durP1;ratioP1;P1;durP2;ratioP2;P2;SDS_P1;SDS_P2;PMS_P1;PMS_P2;Temp;Humidity;BMP_temperature;BMP_pressure;BME280_temperature;BME280_humidity;BME280_pressure;Samples;Min_cycle;Max_cycle;Signal;HPM_P1;HPM_P2
2021/05/28 00:00:04;;;;;;;26.38;9.48;;;;;;;;;;5063815;28;20020;-62
2021/05/28 00:02:29;;;;;;;21.30;9.00;;;;;;;;;;5065257;28;20038;-63
2021/05/28 00:04:54;;;;;;;19.75;9.02;;;;;;;;;;5063556;28;20028;-63
2021/05/28 00:07:20;;;;;;;19.83;9.35;;;;;;;;;;5063777;28;20019;-63
2021/05/28 00:09:45;;;;;;;21.23;10.60;;;;;;;;;;5063780;28;20029;-62
2021/05/28 00:12:10;;;;;;;23.87;10.60;;;;;;;;;;5063818;28;20028;-63
2021/05/28 00:14:35;;;;;;;28.92;11.48;;;;;;;;;;5061110;28;20308;-63
2021/05/28 00:17:00;;;;;;;28.40;12.00;;;;;;;;;;5063572;28;20383;-62
2021/05/28 00:19:26;;;;;;;26.83;11.00;;;;;;;;;;5064210;28;20361;-62
2021/05/28 00:21:51;;;;;;;24.25;10.60;;;;;;;;;;5065229;28;20044;-63
2021/05/28 00:24:16;;;;;;;24.00;11.63;;;;;;;;;;5063752;28;20024;-62
2021/05/28 00:26:41;;;;;;;26.75;11.15;;;;;;;;;;5063710;28;20497;-62
2021/05/28 00:29:06;;;;;;;37.93;14.17;;;;;;;;;;5063099;28;20616;-62
2021/05/28 00:31:32;;;;;;;31.83;13.47;;;;;;;;;;5064483;28;20302;-63
2021/05/28 00:33:57;;;;;;;54.25;15.20;;;;;;;;;;5063463;28;20267;-63
2021/05/28 00:36:22;;;;;;;29.95;14.20;;;;;;;;;;5063559;28;20024;-63
2021/05/28 00:38:47;;;;;;;27.40;13.70;;;;;;;;;;5062080;28;20034;-63
2021/05/28 00:41:13;;;;;;;31.40;14.10;;;;;;;;;;5064151;28;20089;-62
2021/05/28 00:43:38;;;;;;;37.13;13.38;;;;;;;;;;5059046;28;20021;-62
2021/05/28 00:46:03;;;;;;;27.13;13.75;;;;;;;;;;5063239;28;20020;-64
2021/05/28 00:48:29;;;;;;;31.30;13.93;;;;;;;;;;5063378;28;20033;-63
2021/05/28 00:50:54;;;;;;;28.92;14.30;;;;;;;;;;5062975;28;20069;-63
2021/05/28 00:53:20;;;;;;;29.20;14.45;;;;;;;;;;5062721;28;20016;-64
2021/05/28 00:55:45;;;;;;;34.13;14.77;;;;;;;;;;5062622;28;20158;-64
2021/05/28 00:58:11;;;;;;;33.25;14.30;;;;;;;;;;5063541;28;20103;-64
2021/05/28 01:00:36;;;;;;;32.47;13.55;;;;;;;;;;5062849;28;20059;-64
2021/05/28 01:03:01;;;;;;;31.27;14.43;;;;;;;;;;5063977;28;20127;-64
2021/05/28 01:05:27;;;;;;;28.55;12.63;;;;;;;;;;5062978;28;20021;-64
2021/05/28 01:07:52;;;;;;;26.95;13.18;;;;;;;;;;5063670;28;20024;-64
2021/05/28 01:10:17;;;;;;;28.35;14.43;;;;;;;;;;5062668;28;20028;-64
2021/05/28 01:12:42;;;;;;;31.67;14.68;;;;;;;;;;5063731;28;20055;-64
2021/05/28 01:15:08;;;;;;;28.77;14.02;;;;;;;;;;5064233;28;20546;-64
2021/05/28 01:17:33;;;;;;;37.00;14.75;;;;;;;;;;5060812;28;20020;-64
2021/05/28 01:19:59;;;;;;;32.40;14.90;;;;;;;;;;5062753;28;20600;-64
2021/05/28 01:22:24;;;;;;;28.65;15.07;;;;;;;;;;5064026;28;20020;-64
2021/05/28 01:24:49;;;;;;;31.65;15.48;;;;;;;;;;5063097;28;20025;-64
2021/05/28 01:27:16;;;;;;;32.25;14.93;;;;;;;;;;5064062;28;20025;-64
2021/05/28 01:29:41;;;;;;;27.98;14.60;;;;;;;;;;5049387;28;20028;-64
2021/05/28 01:32:07;;;;;;;28.27;15.50;;;;;;;;;;5066751;28;20579;-64
2021/05/28 01:34:32;;;;;;;36.22;15.40;;;;;;;;;;5067317;28;20025;-64
2021/05/28 01:36:57;;;;;;;36.90;13.65;;;;;;;;;;5067327;28;20024;-64
2021/05/28 01:39:22;;;;;;;29.58;14.27;;;;;;;;;;5065418;28;20035;-64
2021/05/28 01:41:47;;;;;;;32.03;14.82;;;;;;;;;;5066099;28;20017;-64
2021/05/28 01:44:13;;;;;;;36.33;14.93;;;;;;;;;;5067989;28;20021;-64
2021/05/28 01:46:38;;;;;;;30.25;13.85;;;;;;;;;;5065440;28;20342;-64
2021/05/28 01:49:04;;;;;;;29.50;13.75;;;;;;;;;;5068491;28;20437;-64
2021/05/28 01:51:30;;;;;;;29.83;13.85;;;;;;;;;;5066721;28;20033;-64
2021/05/28 01:53:55;;;;;;;28.02;13.85;;;;;;;;;;5065659;28;20025;-64
2021/05/28 01:56:20;;;;;;;29.17;13.95;;;;;;;;;;5066754;28;20024;-64
2021/05/28 01:58:45;;;;;;;44.20;17.33;;;;;;;;;;5066741;28;20016;-64
2021/05/28 02:01:10;;;;;;;26.37;14.90;;;;;;;;;;5065549;28;20043;-64
2021/05/28 02:03:36;;;;;;;36.27;15.00;;;;;;;;;;5066504;28;20255;-64
2021/05/28 02:06:01;;;;;;;32.37;14.00;;;;;;;;;;5066978;28;20796;-64
2021/05/28 02:08:26;;;;;;;34.40;14.38;;;;;;;;;;5065888;28;20300;-64
2021/05/28 02:10:51;;;;;;;28.58;15.00;;;;;;;;;;5066612;28;20032;-64
2021/05/28 02:13:16;;;;;;;33.63;16.42;;;;;;;;;;5065999;28;20025;-63
2021/05/28 02:15:42;;;;;;;31.77;15.93;;;;;;;;;;5065743;28;20084;-64
2021/05/28 02:18:07;;;;;;;38.50;17.52;;;;;;;;;;5067293;28;21322;-63
2021/05/28 02:20:32;;;;;;;28.52;15.52;;;;;;;;;;5066581;28;20026;-64
2021/05/28 02:22:57;;;;;;;42.38;16.80;;;;;;;;;;5066758;28;20056;-63
2021/05/28 02:25:23;;;;;;;31.25;16.10;;;;;;;;;;5066575;28;20020;-64
2021/05/28 02:27:48;;;;;;;34.25;15.57;;;;;;;;;;5063542;28;20029;-63
2021/05/28 02:30:14;;;;;;;40.08;15.25;;;;;;;;;;5065583;28;20449;-63
2021/05/28 02:32:39;;;;;;;33.13;15.57;;;;;;;;;;5067168;28;20084;-63
2021/05/28 02:35:06;;;;;;;26.30;15.43;;;;;;;;;;5067307;28;20020;-63
2021/05/28 02:37:32;;;;;;;37.97;16.83;;;;;;;;;;5064434;28;20021;-63
2021/05/28 02:39:57;;;;;;;38.42;16.02;;;;;;;;;;5066445;28;20027;-63
2021/05/28 02:42:22;;;;;;;33.42;16.15;;;;;;;;;;5065234;28;20040;-64
2021/05/28 02:44:47;;;;;;;30.33;16.38;;;;;;;;;;5066153;28;20024;-63
2021/05/28 02:47:13;;;;;;;30.52;16.73;;;;;;;;;;5067240;28;20474;-63
2021/05/28 02:49:38;;;;;;;39.03;17.87;;;;;;;;;;5067023;28;20032;-64
2021/05/28 02:52:04;;;;;;;40.47;17.63;;;;;;;;;;5066079;28;20302;-64
2021/05/28 02:54:29;;;;;;;31.42;17.02;;;;;;;;;;5065150;28;20036;-64
2021/05/28 02:56:55;;;;;;;37.45;16.98;;;;;;;;;;5065381;28;20028;-64
2021/05/28 02:59:20;;;;;;;36.17;16.65;;;;;;;;;;5066258;28;20386;-64
2021/05/28 03:01:45;;;;;;;33.13;17.85;;;;;;;;;;5064752;28;20020;-64
2021/05/28 03:04:11;;;;;;;28.88;16.23;;;;;;;;;;5065751;28;20074;-64
2021/05/28 03:06:36;;;;;;;28.13;15.00;;;;;;;;;;5065405;28;20081;-63
2021/05/28 03:09:01;;;;;;;33.03;17.02;;;;;;;;;;5066018;28;20012;-64
2021/05/28 03:11:27;;;;;;;35.85;17.50;;;;;;;;;;5064977;28;20055;-64
2021/05/28 03:13:52;;;;;;;30.90;16.17;;;;;;;;;;5064856;28;20765;-64
2021/05/28 03:16:17;;;;;;;34.13;15.60;;;;;;;;;;5065616;28;20066;-64
2021/05/28 03:18:49;;;;;;;40.30;15.65;;;;;;;;;;5064884;28;20025;-64
2021/05/28 03:23:46;;;;;;;34.25;15.90;;;;;;;;;;5065147;28;20034;-64
2021/05/28 03:26:12;;;;;;;39.90;18.70;;;;;;;;;;5064401;28;20039;-64
2021/05/28 03:28:37;;;;;;;26.27;15.37;;;;;;;;;;5063627;28;21200;-64
2021/05/28 03:31:02;;;;;;;31.87;16.50;;;;;;;;;;5065272;28;20877;-63
2021/05/28 03:33:27;;;;;;;33.88;15.25;;;;;;;;;;5064627;28;20259;-64
2021/05/28 03:35:52;;;;;;;34.23;16.97;;;;;;;;;;5063696;28;20115;-63
2021/05/28 03:38:18;;;;;;;31.17;14.98;;;;;;;;;;5064920;28;20290;-65
2021/05/28 03:40:43;;;;;;;27.13;14.23;;;;;;;;;;5047678;28;20089;-63
2021/05/28 03:43:08;;;;;;;37.45;16.05;;;;;;;;;;5065082;28;20130;-63
2021/05/28 03:45:33;;;;;;;30.73;15.88;;;;;;;;;;5063427;28;20446;-64
2021/05/28 03:47:58;;;;;;;41.70;17.23;;;;;;;;;;5065563;28;20103;-63
2021/05/28 03:50:23;;;;;;;31.33;16.42;;;;;;;;;;5062058;28;20027;-63
2021/05/28 03:52:49;;;;;;;32.42;15.55;;;;;;;;;;5064470;28;20028;-64
2021/05/28 03:55:14;;;;;;;34.30;15.33;;;;;;;;;;5064087;28;20509;-64
2021/05/28 03:57:39;;;;;;;35.25;16.20;;;;;;;;;;5063552;28;20266;-64
2021/05/28 04:00:05;;;;;;;30.73;16.67;;;;;;;;;;5062652;28;20013;-64
2021/05/28 04:02:30;;;;;;;31.90;15.85;;;;;;;;;;5064267;28;20025;-63
2021/05/28 04:04:55;;;;;;;27.20;16.20;;;;;;;;;;5065113;28;20020;-63
2021/05/28 04:07:20;;;;;;;34.10;16.00;;;;;;;;;;5063058;28;20279;-63
2021/05/28 04:09:45;;;;;;;36.53;16.75;;;;;;;;;;5064832;28;20012;-63
2021/05/28 04:12:11;;;;;;;32.97;16.70;;;;;;;;;;5063969;28;20032;-63
2021/05/28 04:14:36;;;;;;;29.45;15.80;;;;;;;;;;5062903;28;20302;-64
2021/05/28 04:17:01;;;;;;;29.25;15.07;;;;;;;;;;5064629;28;20508;-63
2021/05/28 04:19:26;;;;;;;28.10;15.40;;;;;;;;;;5062735;28;20092;-63
2021/05/28 04:21:51;;;;;;;27.60;15.67;;;;;;;;;;5062717;28;20013;-64
2021/05/28 04:24:17;;;;;;;32.93;16.20;;;;;;;;;;5064316;28;20276;-64
2021/05/28 04:26:42;;;;;;;31.58;16.50;;;;;;;;;;5063617;28;20263;-63
2021/05/28 04:29:07;;;;;;;32.35;16.52;;;;;;;;;;5061855;28;20036;-63
2021/05/28 04:31:32;;;;;;;30.73;15.52;;;;;;;;;;5064398;28;20023;-64
2021/05/28 04:33:57;;;;;;;35.45;17.38;;;;;;;;;;5062829;28;20105;-63
2021/05/28 04:36:22;;;;;;;34.97;17.23;;;;;;;;;;5062728;28;20111;-63
2021/05/28 04:38:48;;;;;;;33.97;17.70;;;;;;;;;;5063784;28;20286;-64
2021/05/28 04:41:13;;;;;;;33.10;15.63;;;;;;;;;;5060234;28;20299;-64
2021/05/28 04:43:38;;;;;;;36.90;17.25;;;;;;;;;;5057710;28;20267;-64
2021/05/28 04:46:04;;;;;;;32.38;17.83;;;;;;;;;;5067204;28;20032;-63
2021/05/28 04:48:29;;;;;;;41.08;17.92;;;;;;;;;;5061124;28;20119;-64
2021/05/28 04:50:54;;;;;;;37.47;17.90;;;;;;;;;;5062086;28;20024;-63
2021/05/28 04:53:19;;;;;;;43.43;19.00;;;;;;;;;;5060636;28;20032;-64
2021/05/28 04:55:44;;;;;;;27.98;16.35;;;;;;;;;;5061673;28;20332;-64
2021/05/28 04:58:10;;;;;;;28.65;16.50;;;;;;;;;;5060777;28;20020;-64
2021/05/28 05:00:35;;;;;;;31.50;17.98;;;;;;;;;;5058627;28;20099;-64
2021/05/28 05:03:01;;;;;;;40.08;19.85;;;;;;;;;;5059058;28;20150;-64
2021/05/28 05:05:27;;;;;;;44.05;22.15;;;;;;;;;;5060841;28;20059;-64
2021/05/28 05:07:52;;;;;;;40.08;20.67;;;;;;;;;;5061080;28;20060;-64
2021/05/28 05:10:17;;;;;;;39.67;21.08;;;;;;;;;;5058167;28;20739;-64
2021/05/28 05:12:42;;;;;;;43.33;20.83;;;;;;;;;;5061156;28;20016;-64
2021/05/28 05:15:08;;;;;;;39.97;21.92;;;;;;;;;;5060189;28;20032;-64
2021/05/28 05:17:34;;;;;;;42.20;21.75;;;;;;;;;;5058647;28;20059;-63
2021/05/28 05:19:59;;;;;;;42.42;21.48;;;;;;;;;;5060406;28;20027;-64
2021/05/28 05:22:24;;;;;;;44.60;21.83;;;;;;;;;;5059704;28;20024;-64
2021/05/28 05:24:49;;;;;;;42.20;22.42;;;;;;;;;;5061866;28;20021;-64
2021/05/28 05:27:14;;;;;;;43.88;23.30;;;;;;;;;;5062846;28;20028;-64
2021/05/28 05:29:40;;;;;;;42.97;21.80;;;;;;;;;;5062859;28;20043;-64
2021/05/28 05:32:05;;;;;;;42.22;22.90;;;;;;;;;;5063432;28;20025;-64
2021/05/28 05:34:31;;;;;;;47.47;22.25;;;;;;;;;;5063849;28;20021;-64
2021/05/28 05:36:58;;;;;;;49.05;22.77;;;;;;;;;;5062890;28;20024;-63
2021/05/28 05:39:23;;;;;;;44.75;20.95;;;;;;;;;;5063112;28;20056;-63
2021/05/28 05:41:48;;;;;;;50.63;22.73;;;;;;;;;;5062086;28;20052;-64
2021/05/28 05:44:14;;;;;;;40.92;21.85;;;;;;;;;;5069153;23;20044;-66
2021/05/28 05:46:39;;;;;;;46.25;21.75;;;;;;;;;;5061718;28;20074;-63
2021/05/28 05:49:05;;;;;;;44.95;22.92;;;;;;;;;;5062559;28;20528;-64
2021/05/28 05:51:30;;;;;;;54.35;24.75;;;;;;;;;;5061934;28;20421;-64
2021/05/28 05:53:55;;;;;;;46.35;23.48;;;;;;;;;;5067709;28;20032;-63
2021/05/28 05:56:20;;;;;;;42.13;20.67;;;;;;;;;;5073559;28;20032;-64
2021/05/28 05:58:45;;;;;;;48.33;21.92;;;;;;;;;;5077553;28;20300;-64
2021/05/28 06:01:11;;;;;;;49.70;22.02;;;;;;;;;;5071514;28;20039;-64
2021/05/28 06:03:36;;;;;;;45.45;20.33;;;;;;;;;;5075874;28;20025;-64
2021/05/28 06:06:01;;;;;;;38.22;19.40;;;;;;;;;;5077100;28;20020;-64
2021/05/28 06:08:26;;;;;;;39.78;20.88;;;;;;;;;;5070575;28;20211;-64
2021/05/28 06:10:52;;;;;;;34.97;18.65;;;;;;;;;;5070543;28;20055;-64
2021/05/28 06:13:17;;;;;;;39.08;19.25;;;;;;;;;;5072967;28;20424;-64
2021/05/28 06:15:42;;;;;;;46.33;19.63;;;;;;;;;;5075165;28;20052;-64
2021/05/28 06:18:07;;;;;;;38.05;17.52;;;;;;;;;;5072689;28;20036;-64
2021/05/28 06:20:32;;;;;;;30.08;16.08;;;;;;;;;;5075078;28;20024;-65
2021/05/28 06:22:58;;;;;;;29.70;16.40;;;;;;;;;;5077243;28;20016;-64
2021/05/28 06:25:24;;;;;;;28.15;15.43;;;;;;;;;;5079451;28;20025;-64
2021/05/28 06:27:49;;;;;;;29.27;15.45;;;;;;;;;;5074355;28;20450;-65
2021/05/28 06:30:15;;;;;;;28.05;15.07;;;;;;;;;;5074908;28;20012;-66
2021/05/28 06:32:40;;;;;;;33.08;15.95;;;;;;;;;;5074406;28;20016;-65
2021/05/28 06:35:05;;;;;;;34.10;14.45;;;;;;;;;;5060901;28;20017;-65
2021/05/28 06:37:31;;;;;;;28.10;12.98;;;;;;;;;;5079230;28;20055;-65
2021/05/28 06:39:56;;;;;;;31.98;13.20;;;;;;;;;;5055556;28;20046;-65
2021/05/28 06:42:21;;;;;;;28.20;14.65;;;;;;;;;;5071996;28;20094;-65
2021/05/28 06:44:46;;;;;;;34.47;15.77;;;;;;;;;;5073182;28;20027;-64
2021/05/28 06:47:11;;;;;;;26.90;14.45;;;;;;;;;;5078811;28;20031;-63
2021/05/28 06:49:37;;;;;;;26.25;14.35;;;;;;;;;;5057309;28;20180;-65
2021/05/28 06:52:02;;;;;;;29.88;14.60;;;;;;;;;;5071993;28;20032;-65
2021/05/28 06:54:29;;;;;;;29.42;14.27;;;;;;;;;;5072253;28;20563;-64
2021/05/28 06:56:54;;;;;;;31.90;13.05;;;;;;;;;;5069539;28;20035;-66
2021/05/28 06:59:20;;;;;;;30.65;13.82;;;;;;;;;;5076802;28;21230;-63
2021/05/28 07:01:45;;;;;;;24.80;13.07;;;;;;;;;;5079332;28;20059;-63
2021/05/28 07:04:10;;;;;;;27.70;13.45;;;;;;;;;;5080152;28;20012;-64
2021/05/28 07:06:35;;;;;;;22.48;13.15;;;;;;;;;;5076221;28;20024;-64
2021/05/28 07:09:00;;;;;;;26.92;12.73;;;;;;;;;;5077228;28;20121;-63
2021/05/28 07:11:26;;;;;;;25.65;12.88;;;;;;;;;;5073144;28;20020;-66
2021/05/28 07:13:51;;;;;;;22.73;12.80;;;;;;;;;;5071328;28;20027;-64
2021/05/28 07:16:16;;;;;;;25.35;13.20;;;;;;;;;;5076844;28;20024;-65
2021/05/28 07:18:42;;;;;;;19.98;11.57;;;;;;;;;;5077698;28;20028;-62
2021/05/28 07:21:07;;;;;;;22.50;11.23;;;;;;;;;;5074714;28;20437;-65
2021/05/28 07:23:32;;;;;;;18.38;11.35;;;;;;;;;;5070851;28;20458;-64
2021/05/28 07:26:00;;;;;;;20.63;9.65;;;;;;;;;;5070471;28;20074;-64
2021/05/28 07:28:26;;;;;;;18.15;10.15;;;;;;;;;;5073407;28;20028;-65
2021/05/28 07:30:51;;;;;;;19.70;10.20;;;;;;;;;;5073110;28;20056;-66
2021/05/28 07:33:17;;;;;;;21.27;10.70;;;;;;;;;;5072052;28;20082;-65
2021/05/28 07:35:42;;;;;;;18.90;11.13;;;;;;;;;;5072935;28;20316;-65
2021/05/28 07:38:07;;;;;;;21.77;10.93;;;;;;;;;;5073504;28;20054;-65
2021/05/28 07:40:32;;;;;;;18.03;9.67;;;;;;;;;;5073271;28;20542;-65
2021/05/28 07:42:57;;;;;;;16.20;9.27;;;;;;;;;;5071995;28;20266;-66
2021/05/28 07:45:23;;;;;;;14.93;8.53;;;;;;;;;;5072737;28;20292;-66
2021/05/28 07:47:48;;;;;;;17.63;9.10;;;;;;;;;;5075737;28;20787;-66
2021/05/28 07:50:13;;;;;;;13.73;8.25;;;;;;;;;;5072421;28;20030;-66
2021/05/28 07:52:38;;;;;;;14.70;8.20;;;;;;;;;;5072398;28;20024;-65
2021/05/28 07:55:05;;;;;;;22.73;9.60;;;;;;;;;;5073257;28;20051;-66
2021/05/28 07:57:30;;;;;;;18.20;9.05;;;;;;;;;;5076851;28;20659;-64
2021/05/28 07:59:55;;;;;;;16.10;9.25;;;;;;;;;;5073256;28;20082;-65
2021/05/28 08:02:20;;;;;;;18.17;8.93;;;;;;;;;;5075349;28;20048;-66
2021/05/28 08:04:45;;;;;;;12.63;8.25;;;;;;;;;;5073168;28;20032;-65
2021/05/28 08:07:11;;;;;;;18.57;9.17;;;;;;;;;;5079133;28;20432;-65
2021/05/28 08:09:36;;;;;;;15.48;9.27;;;;;;;;;;5081609;28;20259;-66
2021/05/28 08:12:01;;;;;;;19.42;9.45;;;;;;;;;;5073980;28;20501;-63
2021/05/28 08:14:26;;;;;;;14.27;7.83;;;;;;;;;;5072856;28;20029;-65
2021/05/28 08:16:52;;;;;;;17.17;8.90;;;;;;;;;;5068394;28;20267;-64
2021/05/28 08:19:17;;;;;;;21.10;8.93;;;;;;;;;;5075458;28;20024;-66
2021/05/28 08:21:42;;;;;;;13.93;7.45;;;;;;;;;;5073751;28;20135;-63
2021/05/28 08:24:08;;;;;;;14.68;6.70;;;;;;;;;;5073732;28;20139;-63
2021/05/28 08:26:33;;;;;;;20.35;6.90;;;;;;;;;;5073679;28;20502;-65
2021/05/28 08:28:58;;;;;;;17.70;6.55;;;;;;;;;;5067483;28;20028;-66
2021/05/28 08:31:23;;;;;;;14.43;6.60;;;;;;;;;;5068480;28;20040;-65
2021/05/28 08:33:49;;;;;;;12.63;5.93;;;;;;;;;;5074552;28;20259;-65
2021/05/28 08:36:14;;;;;;;12.73;6.82;;;;;;;;;;5075284;28;20743;-64
2021/05/28 08:38:39;;;;;;;15.83;7.27;;;;;;;;;;5077222;28;20028;-65
2021/05/28 08:41:05;;;;;;;9.70;5.90;;;;;;;;;;5068464;28;20266;-64
2021/05/28 08:43:30;;;;;;;14.50;6.75;;;;;;;;;;5064320;28;20390;-65
2021/05/28 08:45:56;;;;;;;12.23;6.15;;;;;;;;;;5064549;28;20039;-66
2021/05/28 08:48:22;;;;;;;13.80;7.20;;;;;;;;;;5074723;28;20013;-66
2021/05/28 08:50:49;;;;;;;9.37;5.17;;;;;;;;;;5072300;28;20028;-65
2021/05/28 08:53:15;;;;;;;13.13;5.22;;;;;;;;;;5074163;28;20270;-66
2021/05/28 08:55:41;;;;;;;15.13;5.57;;;;;;;;;;5074977;28;20127;-66
2021/05/28 08:58:08;;;;;;;12.30;6.53;;;;;;;;;;5070268;28;20434;-65
2021/05/28 09:00:34;;;;;;;9.90;5.40;;;;;;;;;;5061499;28;20137;-64
2021/05/28 09:03:17;;;;;;;8.82;5.75;;;;;;;;;;5078470;28;20102;-66
2021/05/28 09:05:43;;;;;;;16.08;4.95;;;;;;;;;;5074078;28;20363;-65
2021/05/28 09:08:08;;;;;;;11.68;4.32;;;;;;;;;;5071912;28;20020;-65
2021/05/28 09:10:35;;;;;;;8.63;4.90;;;;;;;;;;5079822;28;20455;-65
2021/05/28 09:13:06;;;;;;;8.43;4.68;;;;;;;;;;5058231;28;20351;-64
2021/05/28 09:15:31;;;;;;;9.43;4.57;;;;;;;;;;5073788;28;20386;-63
2021/05/28 09:17:57;;;;;;;9.02;4.82;;;;;;;;;;5073590;28;20028;-64
2021/05/28 09:20:23;;;;;;;8.05;4.30;;;;;;;;;;5074711;28;20035;-66
2021/05/28 09:22:48;;;;;;;8.60;5.03;;;;;;;;;;5070996;28;20024;-65
2021/05/28 09:25:14;;;;;;;9.63;5.05;;;;;;;;;;5077512;28;20359;-66
2021/05/28 09:27:40;;;;;;;9.05;4.68;;;;;;;;;;5075006;28;20374;-66
2021/05/28 09:30:12;;;;;;;16.92;5.00;;;;;;;;;;5068245;28;20383;-63
2021/05/28 09:32:39;;;;;;;8.48;4.45;;;;;;;;;;5072659;28;21103;-66
2021/05/28 09:35:07;;;;;;;9.80;5.15;;;;;;;;;;5071776;28;20034;-64
2021/05/28 09:37:35;;;;;;;4.32;2.20;;;;;;;;;;5074382;28;20074;-65
2021/05/28 09:40:08;;;;;;;11.20;4.50;;;;;;;;;;5072055;28;20112;-66
2021/05/28 09:42:46;;;;;;;6.15;3.45;;;;;;;;;;5073598;28;20063;-64
2021/05/28 09:45:20;;;;;;;19.20;6.25;;;;;;;;;;5053076;28;20028;-65
2021/05/28 09:47:46;;;;;;;9.13;5.00;;;;;;;;;;5075883;28;20538;-66
2021/05/28 09:50:13;;;;;;;7.57;4.50;;;;;;;;;;5073578;28;20110;-63
2021/05/28 09:52:38;;;;;;;10.63;4.07;;;;;;;;;;5075303;28;20295;-66
2021/05/28 09:55:05;;;;;;;8.13;3.60;;;;;;;;;;5079202;28;20132;-65
2021/05/28 09:57:33;;;;;;;5.03;2.30;;;;;;;;;;5081366;28;20024;-65
2021/05/28 09:59:58;;;;;;;6.28;2.47;;;;;;;;;;5075967;28;20020;-64
2021/05/28 10:02:28;;;;;;;6.18;2.85;;;;;;;;;;5078318;28;20025;-66
2021/05/28 10:04:54;;;;;;;8.23;2.58;;;;;;;;;;5080056;28;20153;-65
2021/05/28 10:07:19;;;;;;;6.65;2.88;;;;;;;;;;5076157;28;20024;-64
2021/05/28 10:09:45;;;;;;;9.88;2.65;;;;;;;;;;5077310;28;20026;-65
2021/05/28 10:12:10;;;;;;;6.53;2.90;;;;;;;;;;5057392;28;20119;-66
2021/05/28 10:14:35;;;;;;;3.15;1.95;;;;;;;;;;5075193;28;20090;-66
2021/05/28 10:17:00;;;;;;;6.68;3.08;;;;;;;;;;5075216;28;21577;-66
2021/05/28 10:19:26;;;;;;;4.10;2.13;;;;;;;;;;5080018;28;20485;-65
2021/05/28 10:21:51;;;;;;;9.57;3.07;;;;;;;;;;5079330;28;20267;-66
2021/05/28 10:24:16;;;;;;;2.58;1.80;;;;;;;;;;5076787;28;20302;-65
2021/05/28 10:26:44;;;;;;;3.33;2.00;;;;;;;;;;5076302;28;20130;-66
2021/05/28 10:29:09;;;;;;;7.20;2.17;;;;;;;;;;5075431;28;20663;-66
2021/05/28 10:31:53;;;;;;;5.38;2.58;;;;;;;;;;5071448;28;20024;-65
2021/05/28 10:34:18;;;;;;;15.75;3.85;;;;;;;;;;5071996;28;20037;-66
2021/05/28 10:36:45;;;;;;;4.75;2.13;;;;;;;;;;5077669;28;20399;-67
2021/05/28 10:39:11;;;;;;;5.15;2.10;;;;;;;;;;5075728;28;20474;-66
2021/05/28 10:41:38;;;;;;;4.25;2.00;;;;;;;;;;5075470;28;20038;-66
2021/05/28 10:44:07;;;;;;;6.68;2.05;;;;;;;;;;5071194;28;20016;-65
2021/05/28 10:46:33;;;;;;;2.05;1.25;;;;;;;;;;5073063;28;20039;-66
2021/05/28 10:48:58;;;;;;;5.20;1.85;;;;;;;;;;5072148;28;20028;-63
2021/05/28 10:51:29;;;;;;;3.47;1.87;;;;;;;;;;5074237;28;20039;-66
2021/05/28 10:53:55;;;;;;;8.50;2.80;;;;;;;;;;5075678;28;20270;-65
2021/05/28 10:56:27;;;;;;;6.22;3.33;;;;;;;;;;5079390;28;20529;-66
2021/05/28 10:58:52;;;;;;;7.22;2.90;;;;;;;;;;5075411;28;20020;-63
2021/05/28 11:01:32;;;;;;;4.80;2.20;;;;;;;;;;5076817;28;20032;-65
2021/05/28 11:04:14;;;;;;;7.32;2.28;;;;;;;;;;5075640;28;20056;-66
2021/05/28 11:06:54;;;;;;;3.85;1.98;;;;;;;;;;5073633;28;20027;-64
2021/05/28 11:09:34;;;;;;;6.22;2.50;;;;;;;;;;5056048;28;20035;-64
2021/05/28 11:11:59;;;;;;;7.37;2.57;;;;;;;;;;5071830;28;20020;-64
2021/05/28 11:14:25;;;;;;;4.75;1.90;;;;;;;;;;5076872;28;20269;-66
2021/05/28 11:16:53;;;;;;;8.77;2.08;;;;;;;;;;5071198;28;20386;-65
2021/05/28 11:19:25;;;;;;;6.72;2.10;;;;;;;;;;5070839;28;20431;-65
2021/05/28 11:21:54;;;;;;;4.18;1.63;;;;;;;;;;5076320;28;20070;-65
2021/05/28 11:24:20;;;;;;;4.77;1.93;;;;;;;;;;5076042;28;20016;-65
2021/05/28 11:26:45;;;;;;;3.92;1.90;;;;;;;;;;5073471;28;20348;-65
2021/05/28 11:29:21;;;;;;;5.85;1.98;;;;;;;;;;5071164;28;20130;-65
2021/05/28 11:31:46;;;;;;;3.45;2.10;;;;;;;;;;5072457;28;20311;-66
2021/05/28 11:34:11;;;;;;;3.15;2.10;;;;;;;;;;5071584;28;20742;-65
2021/05/28 11:36:41;;;;;;;2.42;2.15;;;;;;;;;;5072976;28;20075;-66
2021/05/28 11:39:09;;;;;;;3.63;2.05;;;;;;;;;;5073160;28;20090;-65
2021/05/28 11:41:48;;;;;;;7.20;2.30;;;;;;;;;;5073119;28;20020;-65
2021/05/28 11:44:15;;;;;;;3.63;2.10;;;;;;;;;;5067154;28;20619;-65
2021/05/28 11:46:41;;;;;;;6.28;2.67;;;;;;;;;;5079921;22;20052;-67
2021/05/28 11:49:07;;;;;;;6.80;2.00;;;;;;;;;;5064687;28;20115;-67
2021/05/28 11:51:32;;;;;;;3.88;2.00;;;;;;;;;;5065478;28;20119;-66
2021/05/28 11:53:58;;;;;;;5.90;2.13;;;;;;;;;;5064740;28;20493;-67
2021/05/28 11:56:23;;;;;;;5.23;2.17;;;;;;;;;;5071549;28;20278;-68
2021/05/28 11:58:50;;;;;;;3.47;1.90;;;;;;;;;;5070541;28;20031;-66
2021/05/28 12:01:15;;;;;;;4.72;2.20;;;;;;;;;;5073584;28;20018;-70
2021/05/28 12:03:40;;;;;;;3.47;2.10;;;;;;;;;;5077206;28;20022;-67
2021/05/28 12:06:06;;;;;;;7.07;2.20;;;;;;;;;;5078197;28;20270;-67
2021/05/28 12:08:31;;;;;;;5.22;2.40;;;;;;;;;;5070662;28;20258;-67
2021/05/28 12:10:57;;;;;;;7.17;1.90;;;;;;;;;;5077361;28;20039;-69
2021/05/28 12:13:23;;;;;;;7.28;2.20;;;;;;;;;;5076808;28;20801;-66
2021/05/28 12:15:50;;;;;;;4.07;2.40;;;;;;;;;;5075073;28;20029;-66
2021/05/28 12:18:31;;;;;;;7.65;2.90;;;;;;;;;;5070755;28;20525;-68
2021/05/28 12:20:57;;;;;;;7.72;2.85;;;;;;;;;;5071812;28;20104;-68
2021/05/28 12:23:23;;;;;;;6.40;2.70;;;;;;;;;;5075117;28;20027;-68
2021/05/28 12:25:56;;;;;;;8.43;2.65;;;;;;;;;;5074353;28;20712;-67
2021/05/28 12:28:25;;;;;;;5.63;2.67;;;;;;;;;;5072185;28;20020;-67
2021/05/28 12:31:02;;;;;;;3.35;1.90;;;;;;;;;;5075532;28;20031;-67
2021/05/28 12:33:30;;;;;;;15.02;1.70;;;;;;;;;;5076101;28;20064;-68
2021/05/28 12:35:56;;;;;;;4.53;1.92;;;;;;;;;;5078091;28;20482;-68
2021/05/28 12:38:23;;;;;;;5.10;1.80;;;;;;;;;;5071323;28;20055;-68
2021/05/28 12:40:49;;;;;;;5.70;2.63;;;;;;;;;;5055398;28;20012;-67
2021/05/28 12:43:22;;;;;;;6.70;2.35;;;;;;;;;;5074802;28;20486;-68
2021/05/28 12:45:47;;;;;;;3.53;2.05;;;;;;;;;;5071270;28;20493;-67
2021/05/28 12:48:13;;;;;;;6.65;3.05;;;;;;;;;;5077856;28;20115;-66
2021/05/28 12:50:40;;;;;;;6.03;3.20;;;;;;;;;;5071628;28;20025;-66
2021/05/28 12:53:09;;;;;;;7.97;2.78;;;;;;;;;;5069723;28;20044;-68
2021/05/28 12:55:37;;;;;;;5.95;2.90;;;;;;;;;;5069768;28;20465;-69
2021/05/28 12:58:02;;;;;;;7.93;3.28;;;;;;;;;;5074016;28;20036;-68
2021/05/28 13:00:31;;;;;;;7.18;2.95;;;;;;;;;;5076077;28;20516;-66
2021/05/28 13:02:57;;;;;;;6.45;3.30;;;;;;;;;;5078773;28;20031;-67
2021/05/28 13:05:31;;;;;;;3.88;2.60;;;;;;;;;;5069803;28;20016;-68
2021/05/28 13:07:56;;;;;;;5.70;2.72;;;;;;;;;;5072188;28;20031;-68
2021/05/28 13:10:22;;;;;;;6.10;2.92;;;;;;;;;;5073687;28;20028;-68
2021/05/28 13:12:48;;;;;;;8.60;3.13;;;;;;;;;;5077311;28;20028;-66
2021/05/28 13:15:25;;;;;;;4.93;2.47;;;;;;;;;;5074125;28;20032;-68
2021/05/28 13:17:54;;;;;;;4.18;2.40;;;;;;;;;;5076202;28;20012;-68
2021/05/28 13:20:20;;;;;;;7.22;3.40;;;;;;;;;;5074137;28;20401;-69
2021/05/28 13:22:46;;;;;;;6.63;3.10;;;;;;;;;;5076837;28;20031;-67
2021/05/28 13:25:25;;;;;;;11.75;3.70;;;;;;;;;;5074567;28;20031;-68
2021/05/28 13:27:59;;;;;;;8.93;3.65;;;;;;;;;;5073978;28;20013;-68
2021/05/28 13:30:29;;;;;;;7.78;4.40;;;;;;;;;;5075835;28;20043;-67
2021/05/28 13:32:54;;;;;;;9.43;4.20;;;;;;;;;;5076629;28;20026;-68
2021/05/28 13:35:19;;;;;;;5.97;3.57;;;;;;;;;;5075937;28;20028;-68
2021/05/28 13:37:44;;;;;;;9.32;4.72;;;;;;;;;;5075988;28;20250;-67
2021/05/28 13:40:10;;;;;;;6.10;3.27;;;;;;;;;;5079934;28;20052;-67
2021/05/28 13:42:35;;;;;;;7.45;3.35;;;;;;;;;;5076485;28;20631;-67
2021/05/28 13:45:01;;;;;;;8.50;3.67;;;;;;;;;;5080785;28;20027;-67
2021/05/28 13:47:26;;;;;;;5.45;2.85;;;;;;;;;;5073906;28;20077;-67
2021/05/28 13:49:52;;;;;;;5.43;2.95;;;;;;;;;;5075807;28;20032;-67
2021/05/28 13:52:17;;;;;;;6.35;3.33;;;;;;;;;;5077489;28;20016;-67
2021/05/28 13:54:43;;;;;;;9.57;3.28;;;;;;;;;;5078767;28;20036;-67
2021/05/28 13:57:08;;;;;;;9.75;3.08;;;;;;;;;;5073133;28;20562;-67
2021/05/28 13:59:34;;;;;;;5.25;2.88;;;;;;;;;;5058080;28;20114;-67
2021/05/28 14:01:59;;;;;;;5.15;2.42;;;;;;;;;;5077176;28;20059;-67
2021/05/28 14:04:25;;;;;;;6.07;2.03;;;;;;;;;;5083761;28;20860;-66
2021/05/28 14:06:50;;;;;;;9.23;3.17;;;;;;;;;;5078077;28;20035;-67
2021/05/28 14:09:15;;;;;;;10.57;3.35;;;;;;;;;;5080548;28;20591;-65
2021/05/28 14:11:40;;;;;;;9.17;3.47;;;;;;;;;;5085563;28;20024;-67
2021/05/28 14:14:06;;;;;;;5.67;2.87;;;;;;;;;;5072935;28;20271;-65
2021/05/28 14:16:31;;;;;;;5.65;2.88;;;;;;;;;;5071476;28;20673;-66
2021/05/28 14:18:56;;;;;;;7.75;3.10;;;;;;;;;;5076922;28;20408;-67
2021/05/28 14:21:21;;;;;;;4.78;3.03;;;;;;;;;;5074688;28;20467;-66
2021/05/28 14:23:47;;;;;;;8.27;2.60;;;;;;;;;;5075914;28;20086;-65